sensor_id;sensor_type;location;lat;lon;timestamp;P1;durP1;ratioP1;P2;durP2;ratioP2
16963;SDS011;8598;50.508;10.436;2022-11-12T00:00:05;52.00;;;12.83;;
16963;SDS011;8598;50.508;10.436;2022-11-12T00:02:32;55.47;;;16.10;;
16963;SDS011;8598;50.508;10.436;2022-11-12T00:04:59;48.13;;;16.70;;
16963;SDS011;8598;50.508;10.436;2022-11-12T00:07:26;65.93;;;18.00;;
16963;SDS011;8598;50.508;10.436;2022-11-12T00:09:53;56.10;;;18.47;;
16963;SDS011;8598;50.508;10.436;2022-11-12T00:12:19;93.87;;;16.67;;
16963;SDS011;8598;50.508;10.436;2022-11-12T00:14:47;69.43;;;16.10;;
16963;SDS011;8598;50.508;10.436;2022-11-12T00:17:14;25.33;;;13.13;;
16963;SDS011;8598;50.508;10.436;2022-11-12T00:19:41;62.50;;;14.03;;
16963;SDS011;8598;50.508;10.436;2022-11-12T00:22:08;138.10;;;16.17;;
16963;SDS011;8598;50.508;10.436;2022-11-12T00:24:34;35.57;;;11.50;;
16963;SDS011;8598;50.508;10.436;2022-11-12T00:27:01;92.30;;;14.13;;
16963;SDS011;8598;50.508;10.436;2022-11-12T00:29:28;148.90;;;15.03;;
16963;SDS011;8598;50.508;10.436;2022-11-12T00:31:56;85.00;;;12.37;;
16963;SDS011;8598;50.508;10.436;2022-11-12T00:34:23;84.30;;;12.63;;
16963;SDS011;8598;50.508;10.436;2022-11-12T00:36:49;145.70;;;14.43;;
16963;SDS011;8598;50.508;10.436;2022-11-12T00:39:16;192.40;;;16.30;;
16963;SDS011;8598;50.508;10.436;2022-11-12T00:41:43;104.90;;;13.67;;
16963;SDS011;8598;50.508;10.436;2022-11-12T00:44:09;131.33;;;15.20;;
16963;SDS011;8598;50.508;10.436;2022-11-12T00:46:36;67.60;;;14.70;;
16963;SDS011;8598;50.508;10.436;2022-11-12T00:49:04;178.40;;;15.77;;
16963;SDS011;8598;50.508;10.436;2022-11-12T00:51:33;118.40;;;13.87;;
16963;SDS011;8598;50.508;10.436;2022-11-12T00:54:00;133.00;;;14.77;;
16963;SDS011;8598;50.508;10.436;2022-11-12T00:56:27;109.10;;;13.77;;
16963;SDS011;8598;50.508;10.436;2022-11-12T00:58:53;211.60;;;15.80;;
16963;SDS011;8598;50.508;10.436;2022-11-12T01:01:20;111.43;;;13.37;;
16963;SDS011;8598;50.508;10.436;2022-11-12T01:03:47;146.07;;;14.87;;
16963;SDS011;8598;50.508;10.436;2022-11-12T01:06:17;126.23;;;13.93;;
16963;SDS011;8598;50.508;10.436;2022-11-12T01:08:45;103.67;;;15.70;;
16963;SDS011;8598;50.508;10.436;2022-11-12T01:11:13;83.27;;;15.70;;
16963;SDS011;8598;50.508;10.436;2022-11-12T01:13:43;106.17;;;15.03;;
16963;SDS011;8598;50.508;10.436;2022-11-12T01:16:12;91.70;;;13.57;;
16963;SDS011;8598;50.508;10.436;2022-11-12T01:18:40;86.30;;;13.70;;
16963;SDS011;8598;50.508;10.436;2022-11-12T01:21:07;30.93;;;10.63;;
16963;SDS011;8598;50.508;10.436;2022-11-12T01:23:36;93.97;;;13.50;;
16963;SDS011;8598;50.508;10.436;2022-11-12T01:26:05;95.10;;;14.00;;
16963;SDS011;8598;50.508;10.436;2022-11-12T01:28:32;64.87;;;12.40;;
16963;SDS011;8598;50.508;10.436;2022-11-12T01:31:08;59.47;;;12.47;;
16963;SDS011;8598;50.508;10.436;2022-11-12T01:33:35;76.73;;;12.60;;
16963;SDS011;8598;50.508;10.436;2022-11-12T01:36:02;71.60;;;13.30;;
16963;SDS011;8598;50.508;10.436;2022-11-12T01:38:32;97.07;;;14.10;;
16963;SDS011;8598;50.508;10.436;2022-11-12T01:41:00;26.97;;;10.90;;
16963;SDS011;8598;50.508;10.436;2022-11-12T01:43:27;71.77;;;13.57;;
16963;SDS011;8598;50.508;10.436;2022-11-12T01:45:54;89.13;;;15.70;;
16963;SDS011;8598;50.508;10.436;2022-11-12T01:48:23;129.90;;;16.33;;
16963;SDS011;8598;50.508;10.436;2022-11-12T01:50:54;83.03;;;15.40;;
16963;SDS011;8598;50.508;10.436;2022-11-12T01:53:22;78.43;;;14.80;;
16963;SDS011;8598;50.508;10.436;2022-11-12T01:55:51;92.80;;;14.63;;
16963;SDS011;8598;50.508;10.436;2022-11-12T01:58:20;72.23;;;12.20;;
16963;SDS011;8598;50.508;10.436;2022-11-12T02:00:50;38.30;;;10.63;;
16963;SDS011;8598;50.508;10.436;2022-11-12T02:03:18;24.93;;;10.97;;
16963;SDS011;8598;50.508;10.436;2022-11-12T02:05:48;56.57;;;12.27;;
16963;SDS011;8598;50.508;10.436;2022-11-12T02:08:20;52.07;;;12.77;;
16963;SDS011;8598;50.508;10.436;2022-11-12T02:10:48;63.23;;;12.07;;
16963;SDS011;8598;50.508;10.436;2022-11-12T02:13:15;58.90;;;12.33;;
16963;SDS011;8598;50.508;10.436;2022-11-12T02:16:02;82.63;;;11.90;;
16963;SDS011;8598;50.508;10.436;2022-11-12T02:18:30;96.63;;;14.00;;
16963;SDS011;8598;50.508;10.436;2022-11-12T02:20:57;82.80;;;11.90;;
16963;SDS011;8598;50.508;10.436;2022-11-12T02:23:29;84.80;;;11.80;;
16963;SDS011;8598;50.508;10.436;2022-11-12T02:25:57;68.43;;;12.03;;
16963;SDS011;8598;50.508;10.436;2022-11-12T02:28:24;71.53;;;12.00;;
16963;SDS011;8598;50.508;10.436;2022-11-12T02:30:51;19.87;;;9.40;;
16963;SDS011;8598;50.508;10.436;2022-11-12T02:33:18;43.27;;;11.67;;
16963;SDS011;8598;50.508;10.436;2022-11-12T02:35:45;127.57;;;15.50;;
16963;SDS011;8598;50.508;10.436;2022-11-12T02:38:12;161.27;;;15.93;;
16963;SDS011;8598;50.508;10.436;2022-11-12T02:40:40;97.37;;;14.73;;
16963;SDS011;8598;50.508;10.436;2022-11-12T02:43:06;107.50;;;12.83;;
16963;SDS011;8598;50.508;10.436;2022-11-12T02:45:33;48.73;;;11.70;;
16963;SDS011;8598;50.508;10.436;2022-11-12T02:48:00;38.77;;;11.40;;
16963;SDS011;8598;50.508;10.436;2022-11-12T02:50:27;17.53;;;9.83;;
16963;SDS011;8598;50.508;10.436;2022-11-12T02:52:53;27.63;;;11.60;;
16963;SDS011;8598;50.508;10.436;2022-11-12T02:55:20;54.43;;;12.40;;
16963;SDS011;8598;50.508;10.436;2022-11-12T02:57:48;134.83;;;14.03;;
16963;SDS011;8598;50.508;10.436;2022-11-12T03:00:15;40.13;;;11.97;;
16963;SDS011;8598;50.508;10.436;2022-11-12T03:02:42;36.03;;;10.37;;
16963;SDS011;8598;50.508;10.436;2022-11-12T03:05:22;38.30;;;9.87;;
16963;SDS011;8598;50.508;10.436;2022-11-12T03:07:50;54.60;;;12.17;;
16963;SDS011;8598;50.508;10.436;2022-11-12T03:10:22;78.70;;;11.90;;
16963;SDS011;8598;50.508;10.436;2022-11-12T03:12:50;97.13;;;13.03;;
16963;SDS011;8598;50.508;10.436;2022-11-12T03:15:17;89.87;;;12.63;;
16963;SDS011;8598;50.508;10.436;2022-11-12T03:17:44;98.07;;;12.93;;
16963;SDS011;8598;50.508;10.436;2022-11-12T03:20:11;106.30;;;13.13;;
16963;SDS011;8598;50.508;10.436;2022-11-12T03:22:38;86.00;;;13.13;;
16963;SDS011;8598;50.508;10.436;2022-11-12T03:25:06;66.00;;;11.27;;
16963;SDS011;8598;50.508;10.436;2022-11-12T03:27:33;15.73;;;8.83;;
16963;SDS011;8598;50.508;10.436;2022-11-12T03:30:01;74.73;;;12.17;;
16963;SDS011;8598;50.508;10.436;2022-11-12T03:32:28;21.03;;;10.63;;
16963;SDS011;8598;50.508;10.436;2022-11-12T03:34:55;60.13;;;12.10;;
16963;SDS011;8598;50.508;10.436;2022-11-12T03:37:22;41.60;;;9.67;;
16963;SDS011;8598;50.508;10.436;2022-11-12T03:39:49;56.47;;;11.10;;
16963;SDS011;8598;50.508;10.436;2022-11-12T03:42:15;31.43;;;10.50;;
16963;SDS011;8598;50.508;10.436;2022-11-12T03:44:42;109.13;;;16.03;;
16963;SDS011;8598;50.508;10.436;2022-11-12T03:47:10;197.47;;;16.07;;
16963;SDS011;8598;50.508;10.436;2022-11-12T03:49:37;135.03;;;14.90;;
16963;SDS011;8598;50.508;10.436;2022-11-12T03:52:04;84.37;;;12.60;;
16963;SDS011;8598;50.508;10.436;2022-11-12T03:54:30;31.23;;;9.40;;
16963;SDS011;8598;50.508;10.436;2022-11-12T03:56:57;35.10;;;9.33;;
16963;SDS011;8598;50.508;10.436;2022-11-12T03:59:24;26.93;;;9.30;;
16963;SDS011;8598;50.508;10.436;2022-11-12T04:01:51;84.43;;;12.27;;
16963;SDS011;8598;50.508;10.436;2022-11-12T04:04:19;54.30;;;10.37;;
16963;SDS011;8598;50.508;10.436;2022-11-12T04:06:45;58.37;;;10.77;;
16963;SDS011;8598;50.508;10.436;2022-11-12T04:09:30;153.07;;;14.50;;
16963;SDS011;8598;50.508;10.436;2022-11-12T04:11:56;155.07;;;13.80;;
16963;SDS011;8598;50.508;10.436;2022-11-12T04:14:43;52.97;;;10.37;;
16963;SDS011;8598;50.508;10.436;2022-11-12T04:17:09;69.90;;;12.60;;
16963;SDS011;8598;50.508;10.436;2022-11-12T04:19:55;86.27;;;15.20;;
16963;SDS011;8598;50.508;10.436;2022-11-12T04:22:39;30.80;;;9.57;;
16963;SDS011;8598;50.508;10.436;2022-11-12T04:25:06;19.03;;;8.97;;
16963;SDS011;8598;50.508;10.436;2022-11-12T04:27:50;80.37;;;9.97;;
16963;SDS011;8598;50.508;10.436;2022-11-12T04:30:16;51.20;;;9.50;;
16963;SDS011;8598;50.508;10.436;2022-11-12T04:32:45;82.97;;;10.70;;
16963;SDS011;8598;50.508;10.436;2022-11-12T04:35:15;67.00;;;9.20;;
16963;SDS011;8598;50.508;10.436;2022-11-12T04:37:42;101.87;;;12.00;;
16963;SDS011;8598;50.508;10.436;2022-11-12T04:40:10;101.37;;;11.53;;
16963;SDS011;8598;50.508;10.436;2022-11-12T04:42:55;54.47;;;9.80;;
16963;SDS011;8598;50.508;10.436;2022-11-12T04:45:39;30.43;;;7.90;;
16963;SDS011;8598;50.508;10.436;2022-11-12T04:48:07;50.20;;;10.17;;
16963;SDS011;8598;50.508;10.436;2022-11-12T04:50:36;62.53;;;10.90;;
16963;SDS011;8598;50.508;10.436;2022-11-12T04:53:02;18.60;;;9.10;;
16963;SDS011;8598;50.508;10.436;2022-11-12T04:55:30;20.23;;;9.13;;
16963;SDS011;8598;50.508;10.436;2022-11-12T04:57:57;82.37;;;11.90;;
16963;SDS011;8598;50.508;10.436;2022-11-12T05:00:24;65.93;;;11.80;;
16963;SDS011;8598;50.508;10.436;2022-11-12T05:02:51;73.53;;;10.60;;
16963;SDS011;8598;50.508;10.436;2022-11-12T05:05:18;11.47;;;8.43;;
16963;SDS011;8598;50.508;10.436;2022-11-12T05:07:46;38.23;;;9.90;;
16963;SDS011;8598;50.508;10.436;2022-11-12T05:10:13;27.03;;;10.07;;
16963;SDS011;8598;50.508;10.436;2022-11-12T05:12:40;24.90;;;9.87;;
16963;SDS011;8598;50.508;10.436;2022-11-12T05:15:08;50.13;;;10.37;;
16963;SDS011;8598;50.508;10.436;2022-11-12T05:17:40;23.23;;;9.20;;
16963;SDS011;8598;50.508;10.436;2022-11-12T05:20:07;64.63;;;12.00;;
16963;SDS011;8598;50.508;10.436;2022-11-12T05:22:35;70.63;;;10.13;;
16963;SDS011;8598;50.508;10.436;2022-11-12T05:25:03;63.10;;;10.50;;
16963;SDS011;8598;50.508;10.436;2022-11-12T05:27:30;43.47;;;10.03;;
16963;SDS011;8598;50.508;10.436;2022-11-12T05:29:57;17.43;;;9.17;;
16963;SDS011;8598;50.508;10.436;2022-11-12T05:32:24;30.23;;;9.00;;
16963;SDS011;8598;50.508;10.436;2022-11-12T05:34:51;47.63;;;10.20;;
16963;SDS011;8598;50.508;10.436;2022-11-12T05:37:19;41.30;;;8.80;;
16963;SDS011;8598;50.508;10.436;2022-11-12T05:39:45;140.23;;;13.17;;
16963;SDS011;8598;50.508;10.436;2022-11-12T05:42:13;64.93;;;10.60;;
16963;SDS011;8598;50.508;10.436;2022-11-12T05:44:40;68.23;;;10.80;;
16963;SDS011;8598;50.508;10.436;2022-11-12T05:47:07;151.33;;;14.20;;
16963;SDS011;8598;50.508;10.436;2022-11-12T05:49:34;63.47;;;12.27;;
16963;SDS011;8598;50.508;10.436;2022-11-12T05:52:00;28.43;;;10.07;;
16963;SDS011;8598;50.508;10.436;2022-11-12T05:54:27;37.47;;;11.23;;
16963;SDS011;8598;50.508;10.436;2022-11-12T05:56:54;108.37;;;12.37;;
16963;SDS011;8598;50.508;10.436;2022-11-12T05:59:22;75.73;;;11.80;;
16963;SDS011;8598;50.508;10.436;2022-11-12T06:01:48;81.03;;;11.10;;
16963;SDS011;8598;50.508;10.436;2022-11-12T06:04:15;82.20;;;12.40;;
16963;SDS011;8598;50.508;10.436;2022-11-12T06:06:43;73.83;;;11.83;;
16963;SDS011;8598;50.508;10.436;2022-11-12T06:09:10;85.23;;;11.43;;
16963;SDS011;8598;50.508;10.436;2022-11-12T06:11:36;63.73;;;10.43;;
16963;SDS011;8598;50.508;10.436;2022-11-12T06:14:04;81.30;;;11.20;;
16963;SDS011;8598;50.508;10.436;2022-11-12T06:16:32;73.47;;;10.47;;
16963;SDS011;8598;50.508;10.436;2022-11-12T06:18:59;58.70;;;11.23;;
16963;SDS011;8598;50.508;10.436;2022-11-12T06:21:25;47.67;;;10.30;;
16963;SDS011;8598;50.508;10.436;2022-11-12T06:23:53;40.87;;;11.73;;
16963;SDS011;8598;50.508;10.436;2022-11-12T06:26:21;78.50;;;12.17;;
16963;SDS011;8598;50.508;10.436;2022-11-12T06:28:49;62.23;;;11.17;;
16963;SDS011;8598;50.508;10.436;2022-11-12T06:31:16;192.70;;;16.33;;
16963;SDS011;8598;50.508;10.436;2022-11-12T06:33:45;178.43;;;15.53;;
16963;SDS011;8598;50.508;10.436;2022-11-12T06:36:13;63.30;;;12.43;;
16963;SDS011;8598;50.508;10.436;2022-11-12T06:38:41;94.90;;;10.73;;
16963;SDS011;8598;50.508;10.436;2022-11-12T06:41:09;101.27;;;11.10;;
16963;SDS011;8598;50.508;10.436;2022-11-12T06:43:37;70.83;;;11.07;;
16963;SDS011;8598;50.508;10.436;2022-11-12T06:46:05;188.07;;;15.50;;
16963;SDS011;8598;50.508;10.436;2022-11-12T06:48:33;72.83;;;11.40;;
16963;SDS011;8598;50.508;10.436;2022-11-12T06:51:08;90.17;;;13.97;;
16963;SDS011;8598;50.508;10.436;2022-11-12T06:53:37;80.10;;;12.77;;
16963;SDS011;8598;50.508;10.436;2022-11-12T06:56:04;99.60;;;11.60;;
16963;SDS011;8598;50.508;10.436;2022-11-12T06:58:32;68.83;;;12.53;;
16963;SDS011;8598;50.508;10.436;2022-11-12T07:01:03;99.77;;;13.40;;
16963;SDS011;8598;50.508;10.436;2022-11-12T07:03:34;94.27;;;12.37;;
16963;SDS011;8598;50.508;10.436;2022-11-12T07:06:05;59.63;;;11.90;;
16963;SDS011;8598;50.508;10.436;2022-11-12T07:08:35;50.20;;;12.57;;
16963;SDS011;8598;50.508;10.436;2022-11-12T07:11:03;111.77;;;13.03;;
16963;SDS011;8598;50.508;10.436;2022-11-12T07:13:31;134.90;;;15.50;;
16963;SDS011;8598;50.508;10.436;2022-11-12T07:15:59;128.93;;;11.67;;
16963;SDS011;8598;50.508;10.436;2022-11-12T07:18:26;100.53;;;12.80;;
16963;SDS011;8598;50.508;10.436;2022-11-12T07:20:57;88.80;;;11.43;;
16963;SDS011;8598;50.508;10.436;2022-11-12T07:23:26;40.87;;;9.03;;
16963;SDS011;8598;50.508;10.436;2022-11-12T07:25:57;11.60;;;7.30;;
16963;SDS011;8598;50.508;10.436;2022-11-12T07:28:24;37.73;;;9.73;;
16963;SDS011;8598;50.508;10.436;2022-11-12T07:30:53;13.23;;;8.20;;
16963;SDS011;8598;50.508;10.436;2022-11-12T07:33:21;50.90;;;11.97;;
16963;SDS011;8598;50.508;10.436;2022-11-12T07:35:54;79.37;;;13.03;;
16963;SDS011;8598;50.508;10.436;2022-11-12T07:38:22;116.07;;;12.93;;
16963;SDS011;8598;50.508;10.436;2022-11-12T07:40:50;43.80;;;10.30;;
16963;SDS011;8598;50.508;10.436;2022-11-12T07:43:17;120.73;;;14.27;;
16963;SDS011;8598;50.508;10.436;2022-11-12T07:45:44;36.77;;;9.13;;
16963;SDS011;8598;50.508;10.436;2022-11-12T07:48:10;43.00;;;8.90;;
16963;SDS011;8598;50.508;10.436;2022-11-12T07:50:37;35.10;;;10.70;;
16963;SDS011;8598;50.508;10.436;2022-11-12T07:53:04;53.80;;;10.77;;
16963;SDS011;8598;50.508;10.436;2022-11-12T07:55:31;32.50;;;11.47;;
16963;SDS011;8598;50.508;10.436;2022-11-12T07:57:59;138.50;;;16.23;;
16963;SDS011;8598;50.508;10.436;2022-11-12T08:00:25;103.63;;;22.67;;
16963;SDS011;8598;50.508;10.436;2022-11-12T08:02:52;150.43;;;18.03;;
16963;SDS011;8598;50.508;10.436;2022-11-12T08:05:19;46.53;;;11.00;;
16963;SDS011;8598;50.508;10.436;2022-11-12T08:07:45;54.80;;;8.87;;
16963;SDS011;8598;50.508;10.436;2022-11-12T08:10:12;53.87;;;8.80;;
16963;SDS011;8598;50.508;10.436;2022-11-12T08:12:39;106.17;;;9.43;;
16963;SDS011;8598;50.508;10.436;2022-11-12T08:15:07;36.10;;;7.60;;
16963;SDS011;8598;50.508;10.436;2022-11-12T08:17:36;22.13;;;8.00;;
16963;SDS011;8598;50.508;10.436;2022-11-12T08:20:03;86.33;;;8.83;;
16963;SDS011;8598;50.508;10.436;2022-11-12T08:22:31;62.70;;;8.20;;
16963;SDS011;8598;50.508;10.436;2022-11-12T08:24:58;57.57;;;7.87;;
16963;SDS011;8598;50.508;10.436;2022-11-12T08:27:24;42.17;;;6.73;;
16963;SDS011;8598;50.508;10.436;2022-11-12T08:29:51;47.53;;;7.50;;
16963;SDS011;8598;50.508;10.436;2022-11-12T08:32:19;36.67;;;7.17;;
16963;SDS011;8598;50.508;10.436;2022-11-12T08:34:46;69.17;;;8.53;;
16963;SDS011;8598;50.508;10.436;2022-11-12T08:37:12;45.77;;;7.93;;
16963;SDS011;8598;50.508;10.436;2022-11-12T08:39:39;15.73;;;6.00;;
16963;SDS011;8598;50.508;10.436;2022-11-12T08:42:06;49.90;;;7.37;;
16963;SDS011;8598;50.508;10.436;2022-11-12T08:44:33;17.00;;;7.40;;
16963;SDS011;8598;50.508;10.436;2022-11-12T08:46:59;46.03;;;8.63;;
16963;SDS011;8598;50.508;10.436;2022-11-12T08:49:28;12.90;;;6.83;;
16963;SDS011;8598;50.508;10.436;2022-11-12T08:51:54;26.90;;;7.13;;
16963;SDS011;8598;50.508;10.436;2022-11-12T08:54:21;11.13;;;6.07;;
16963;SDS011;8598;50.508;10.436;2022-11-12T08:56:48;12.03;;;5.83;;
16963;SDS011;8598;50.508;10.436;2022-11-12T08:59:16;12.10;;;5.77;;
16963;SDS011;8598;50.508;10.436;2022-11-12T09:01:42;17.70;;;6.53;;
16963;SDS011;8598;50.508;10.436;2022-11-12T09:04:09;30.07;;;5.20;;
16963;SDS011;8598;50.508;10.436;2022-11-12T09:06:37;43.13;;;5.67;;
16963;SDS011;8598;50.508;10.436;2022-11-12T09:09:04;8.17;;;5.53;;
16963;SDS011;8598;50.508;10.436;2022-11-12T09:11:31;7.60;;;5.00;;
16963;SDS011;8598;50.508;10.436;2022-11-12T09:13:57;46.93;;;7.53;;
16963;SDS011;8598;50.508;10.436;2022-11-12T09:16:24;29.40;;;6.23;;
16963;SDS011;8598;50.508;10.436;2022-11-12T09:18:51;54.20;;;7.87;;
16963;SDS011;8598;50.508;10.436;2022-11-12T09:21:18;9.90;;;5.77;;
16963;SDS011;8598;50.508;10.436;2022-11-12T09:23:49;70.93;;;8.33;;
16963;SDS011;8598;50.508;10.436;2022-11-12T09:26:16;64.33;;;10.80;;
16963;SDS011;8598;50.508;10.436;2022-11-12T09:28:43;34.50;;;7.80;;
16963;SDS011;8598;50.508;10.436;2022-11-12T09:31:10;64.00;;;8.77;;
16963;SDS011;8598;50.508;10.436;2022-11-12T09:33:36;60.37;;;8.40;;
16963;SDS011;8598;50.508;10.436;2022-11-12T09:36:03;107.73;;;9.77;;
16963;SDS011;8598;50.508;10.436;2022-11-12T09:38:30;144.27;;;10.60;;
16963;SDS011;8598;50.508;10.436;2022-11-12T09:41:04;119.07;;;10.23;;
16963;SDS011;8598;50.508;10.436;2022-11-12T09:43:47;63.13;;;6.77;;
16963;SDS011;8598;50.508;10.436;2022-11-12T09:46:23;78.13;;;6.83;;
16963;SDS011;8598;50.508;10.436;2022-11-12T09:48:56;66.33;;;6.83;;
16963;SDS011;8598;50.508;10.436;2022-11-12T09:51:31;51.70;;;6.33;;
16963;SDS011;8598;50.508;10.436;2022-11-12T09:54:01;68.97;;;6.80;;
16963;SDS011;8598;50.508;10.436;2022-11-12T09:56:33;80.33;;;8.10;;
16963;SDS011;8598;50.508;10.436;2022-11-12T09:59:00;24.17;;;7.40;;
16963;SDS011;8598;50.508;10.436;2022-11-12T10:01:35;11.23;;;5.37;;
16963;SDS011;8598;50.508;10.436;2022-11-12T10:04:16;25.67;;;5.30;;
16963;SDS011;8598;50.508;10.436;2022-11-12T10:06:54;6.50;;;4.67;;
16963;SDS011;8598;50.508;10.436;2022-11-12T10:09:31;11.57;;;5.20;;
16963;SDS011;8598;50.508;10.436;2022-11-12T10:12:08;6.40;;;5.37;;
16963;SDS011;8598;50.508;10.436;2022-11-12T10:15:06;10.77;;;5.17;;
16963;SDS011;8598;50.508;10.436;2022-11-12T10:18:20;7.53;;;5.17;;
16963;SDS011;8598;50.508;10.436;2022-11-12T10:20:55;14.10;;;6.10;;
16963;SDS011;8598;50.508;10.436;2022-11-12T10:23:27;20.80;;;18.60;;
16963;SDS011;8598;50.508;10.436;2022-11-12T10:26:04;9.07;;;6.33;;
16963;SDS011;8598;50.508;10.436;2022-11-12T10:28:39;6.20;;;4.73;;
16963;SDS011;8598;50.508;10.436;2022-11-12T10:31:11;6.80;;;4.97;;
16963;SDS011;8598;50.508;10.436;2022-11-12T10:33:39;6.83;;;5.23;;
16963;SDS011;8598;50.508;10.436;2022-11-12T10:38:54;8.93;;;6.63;;
16963;SDS011;8598;50.508;10.436;2022-11-12T10:41:22;9.97;;;7.17;;
16963;SDS011;8598;50.508;10.436;2022-11-12T10:43:56;9.67;;;7.77;;
16963;SDS011;8598;50.508;10.436;2022-11-12T10:46:25;14.60;;;10.90;;
16963;SDS011;8598;50.508;10.436;2022-11-12T10:48:55;10.80;;;6.47;;
16963;SDS011;8598;50.508;10.436;2022-11-12T10:53:52;8.37;;;5.10;;
16963;SDS011;8598;50.508;10.436;2022-11-12T10:56:23;10.17;;;7.70;;
16963;SDS011;8598;50.508;10.436;2022-11-12T10:59:08;6.80;;;5.90;;
16963;SDS011;8598;50.508;10.436;2022-11-12T11:01:36;8.07;;;6.07;;
16963;SDS011;8598;50.508;10.436;2022-11-12T11:04:03;7.70;;;6.03;;
16963;SDS011;8598;50.508;10.436;2022-11-12T11:06:30;6.60;;;5.30;;
16963;SDS011;8598;50.508;10.436;2022-11-12T11:09:07;9.00;;;7.23;;
16963;SDS011;8598;50.508;10.436;2022-11-12T11:11:47;7.87;;;6.23;;
16963;SDS011;8598;50.508;10.436;2022-11-12T11:14:22;6.10;;;5.20;;
16963;SDS011;8598;50.508;10.436;2022-11-12T11:16:55;7.70;;;5.77;;
16963;SDS011;8598;50.508;10.436;2022-11-12T11:19:27;9.50;;;6.83;;
16963;SDS011;8598;50.508;10.436;2022-11-12T11:22:02;9.17;;;6.93;;
16963;SDS011;8598;50.508;10.436;2022-11-12T11:24:49;9.00;;;6.63;;
16963;SDS011;8598;50.508;10.436;2022-11-12T11:27:25;9.30;;;8.03;;
16963;SDS011;8598;50.508;10.436;2022-11-12T11:30:02;10.50;;;8.47;;
16963;SDS011;8598;50.508;10.436;2022-11-12T11:32:46;11.30;;;9.07;;
16963;SDS011;8598;50.508;10.436;2022-11-12T11:35:43;12.43;;;8.40;;
16963;SDS011;8598;50.508;10.436;2022-11-12T11:38:20;10.97;;;8.57;;
16963;SDS011;8598;50.508;10.436;2022-11-12T11:40:59;10.60;;;8.47;;
16963;SDS011;8598;50.508;10.436;2022-11-12T11:43:39;18.00;;;14.27;;
16963;SDS011;8598;50.508;10.436;2022-11-12T11:46:18;11.17;;;9.47;;
16963;SDS011;8598;50.508;10.436;2022-11-12T11:49:01;9.73;;;8.60;;
16963;SDS011;8598;50.508;10.436;2022-11-12T11:51:46;12.47;;;10.67;;
16963;SDS011;8598;50.508;10.436;2022-11-12T11:54:27;9.70;;;8.70;;
16963;SDS011;8598;50.508;10.436;2022-11-12T11:57:18;8.10;;;7.30;;
16963;SDS011;8598;50.508;10.436;2022-11-12T11:59:53;7.97;;;5.47;;
16963;SDS011;8598;50.508;10.436;2022-11-12T12:02:38;6.83;;;5.70;;
16963;SDS011;8598;50.508;10.436;2022-11-12T12:05:28;6.50;;;5.80;;
16963;SDS011;8598;50.508;10.436;2022-11-12T12:08:05;7.70;;;5.63;;
16963;SDS011;8598;50.508;10.436;2022-11-12T12:10:39;7.67;;;6.33;;
16963;SDS011;8598;50.508;10.436;2022-11-12T12:13:14;6.97;;;5.70;;
16963;SDS011;8598;50.508;10.436;2022-11-12T12:15:52;9.60;;;7.73;;
16963;SDS011;8598;50.508;10.436;2022-11-12T12:18:35;5.37;;;4.73;;
16963;SDS011;8598;50.508;10.436;2022-11-12T12:21:11;5.93;;;5.33;;
16963;SDS011;8598;50.508;10.436;2022-11-12T12:23:43;7.23;;;6.00;;
16963;SDS011;8598;50.508;10.436;2022-11-12T12:26:15;7.40;;;6.07;;
16963;SDS011;8598;50.508;10.436;2022-11-12T12:28:46;7.60;;;6.13;;
16963;SDS011;8598;50.508;10.436;2022-11-12T12:31:19;9.67;;;5.40;;
16963;SDS011;8598;50.508;10.436;2022-11-12T12:33:54;7.23;;;5.97;;
16963;SDS011;8598;50.508;10.436;2022-11-12T12:36:24;5.80;;;5.20;;
16963;SDS011;8598;50.508;10.436;2022-11-12T12:39:01;6.30;;;5.70;;
16963;SDS011;8598;50.508;10.436;2022-11-12T12:41:36;6.67;;;4.73;;
16963;SDS011;8598;50.508;10.436;2022-11-12T12:44:08;12.70;;;8.20;;
16963;SDS011;8598;50.508;10.436;2022-11-12T12:46:37;16.17;;;10.73;;
16963;SDS011;8598;50.508;10.436;2022-11-12T12:49:09;11.43;;;8.10;;
16963;SDS011;8598;50.508;10.436;2022-11-12T12:51:40;7.87;;;6.57;;
16963;SDS011;8598;50.508;10.436;2022-11-12T12:57:29;11.50;;;7.57;;
16963;SDS011;8598;50.508;10.436;2022-11-12T13:02:50;16.80;;;11.00;;
16963;SDS011;8598;50.508;10.436;2022-11-12T13:05:23;9.10;;;6.50;;
16963;SDS011;8598;50.508;10.436;2022-11-12T13:07:51;9.20;;;6.30;;
16963;SDS011;8598;50.508;10.436;2022-11-12T13:13:26;5.77;;;5.23;;
16963;SDS011;8598;50.508;10.436;2022-11-12T13:15:58;7.60;;;4.57;;
16963;SDS011;8598;50.508;10.436;2022-11-12T13:21:23;6.50;;;5.73;;
16963;SDS011;8598;50.508;10.436;2022-11-12T13:23:50;5.97;;;5.37;;
16963;SDS011;8598;50.508;10.436;2022-11-12T13:26:47;6.03;;;4.73;;
16963;SDS011;8598;50.508;10.436;2022-11-12T13:29:17;7.80;;;6.23;;
16963;SDS011;8598;50.508;10.436;2022-11-12T13:35:18;8.50;;;6.60;;
16963;SDS011;8598;50.508;10.436;2022-11-12T13:37:51;8.63;;;7.40;;
16963;SDS011;8598;50.508;10.436;2022-11-12T13:40:22;6.90;;;5.60;;
16963;SDS011;8598;50.508;10.436;2022-11-12T13:43:01;5.63;;;4.63;;
16963;SDS011;8598;50.508;10.436;2022-11-12T13:45:31;7.53;;;5.53;;
16963;SDS011;8598;50.508;10.436;2022-11-12T13:48:04;9.83;;;6.90;;
16963;SDS011;8598;50.508;10.436;2022-11-12T13:50:32;5.93;;;4.90;;
16963;SDS011;8598;50.508;10.436;2022-11-12T13:53:01;14.40;;;8.77;;
16963;SDS011;8598;50.508;10.436;2022-11-12T13:55:32;13.43;;;10.10;;
16963;SDS011;8598;50.508;10.436;2022-11-12T13:57:59;9.53;;;7.03;;
16963;SDS011;8598;50.508;10.436;2022-11-12T14:00:26;12.80;;;7.87;;
16963;SDS011;8598;50.508;10.436;2022-11-12T14:02:55;8.47;;;5.60;;
16963;SDS011;8598;50.508;10.436;2022-11-12T14:05:24;7.90;;;5.30;;
16963;SDS011;8598;50.508;10.436;2022-11-12T14:10:56;7.47;;;4.83;;
16963;SDS011;8598;50.508;10.436;2022-11-12T14:13:43;6.60;;;4.97;;
16963;SDS011;8598;50.508;10.436;2022-11-12T14:16:24;7.37;;;5.43;;
16963;SDS011;8598;50.508;10.436;2022-11-12T14:21:57;8.00;;;4.50;;
16963;SDS011;8598;50.508;10.436;2022-11-12T14:24:26;9.60;;;6.57;;
16963;SDS011;8598;50.508;10.436;2022-11-12T14:26:53;12.33;;;7.83;;
16963;SDS011;8598;50.508;10.436;2022-11-12T14:29:21;12.00;;;7.93;;
16963;SDS011;8598;50.508;10.436;2022-11-12T14:31:47;12.10;;;7.40;;
16963;SDS011;8598;50.508;10.436;2022-11-12T14:34:27;7.87;;;6.43;;
16963;SDS011;8598;50.508;10.436;2022-11-12T14:36:54;8.00;;;5.40;;
16963;SDS011;8598;50.508;10.436;2022-11-12T14:39:21;7.27;;;5.70;;
16963;SDS011;8598;50.508;10.436;2022-11-12T14:41:50;6.93;;;5.67;;
16963;SDS011;8598;50.508;10.436;2022-11-12T14:44:18;7.47;;;5.20;;
16963;SDS011;8598;50.508;10.436;2022-11-12T14:46:48;8.23;;;5.50;;
16963;SDS011;8598;50.508;10.436;2022-11-12T14:49:19;8.10;;;6.40;;
16963;SDS011;8598;50.508;10.436;2022-11-12T14:51:54;8.03;;;7.00;;
16963;SDS011;8598;50.508;10.436;2022-11-12T14:54:26;9.97;;;7.13;;
16963;SDS011;8598;50.508;10.436;2022-11-12T14:56:58;8.33;;;7.43;;
16963;SDS011;8598;50.508;10.436;2022-11-12T14:59:27;10.43;;;7.00;;
16963;SDS011;8598;50.508;10.436;2022-11-12T15:02:01;10.23;;;8.23;;
16963;SDS011;8598;50.508;10.436;2022-11-12T15:04:35;8.63;;;7.10;;
16963;SDS011;8598;50.508;10.436;2022-11-12T15:07:03;15.53;;;7.53;;
16963;SDS011;8598;50.508;10.436;2022-11-12T15:09:32;6.90;;;5.93;;
16963;SDS011;8598;50.508;10.436;2022-11-12T15:12:02;10.30;;;8.33;;